Time;durP1;ratioP1;P1;durP2;ratioP2;P2;SDS_P1;SDS_P2;PMS_P1;PMS_P2;Temp;Humidity;BMP_temperature;BMP_pressure;BME280_temperature;BME280_humidity;BME280_pressure;Samples;Min_cycle;Max_cycle;Signal;HPM_P1;HPM_P2
2021/07/20 00:01:35;;;;;;;10.68;5.18;;;;;;;24.59;43.86;101803.38;4997888;28;20030;-61
2021/07/20 00:04:01;;;;;;;8.13;5.47;;;;;;;24.55;44.29;101806.69;4996370;28;20027;-61
2021/07/20 00:06:26;;;;;;;11.65;5.50;;;;;;;24.49;43.55;101807.47;4997844;28;20105;-61
2021/07/20 00:08:51;;;;;;;14.65;6.28;;;;;;;24.41;43.89;101805.72;4997775;28;20046;-61
2021/07/20 00:11:17;;;;;;;11.52;5.30;;;;;;;24.36;44.05;101812.84;4997762;28;20026;-61
2021/07/20 00:13:42;;;;;;;12.10;5.55;;;;;;;24.33;43.84;101817.66;4997473;28;20475;-61
2021/07/20 00:16:08;;;;;;;11.10;5.20;;;;;;;24.29;43.57;101813.63;4996173;28;20105;-61
2021/07/20 00:18:35;;;;;;;10.40;5.15;;;;;;;24.26;43.67;101814.00;4996296;28;20019;-61
2021/07/20 00:21:04;;;;;;;9.13;4.60;;;;;;;24.22;44.34;101817.34;4997266;28;20168;-61
2021/07/20 00:23:30;;;;;;;12.30;5.55;;;;;;;24.17;44.21;101817.06;4996049;28;20029;-61
2021/07/20 00:25:55;;;;;;;11.73;5.47;;;;;;;24.11;43.75;101818.69;4996121;28;20023;-61
2021/07/20 00:28:21;;;;;;;9.43;5.00;;;;;;;24.04;44.60;101814.13;4997193;28;20041;-61
2021/07/20 00:30:48;;;;;;;11.40;4.97;;;;;;;24.02;44.01;101821.69;4995836;28;20117;-61
2021/07/20 00:33:14;;;;;;;9.95;5.18;;;;;;;23.97;43.72;101814.06;4997120;28;20479;-62
2021/07/20 00:35:40;;;;;;;10.73;4.95;;;;;;;23.93;44.43;101812.75;4997511;28;20029;-61
2021/07/20 00:38:06;;;;;;;10.25;4.95;;;;;;;23.84;44.32;101811.19;4997390;28;20041;-61
2021/07/20 00:40:31;;;;;;;9.05;4.68;;;;;;;23.80;43.95;101811.75;4997485;28;20472;-61
2021/07/20 00:42:58;;;;;;;9.48;5.40;;;;;;;23.76;43.81;101812.13;4996856;28;20027;-61
2021/07/20 00:45:23;;;;;;;11.60;4.60;;;;;;;23.73;43.91;101819.84;4997072;28;20019;-61
2021/07/20 00:47:49;;;;;;;9.65;4.20;;;;;;;23.69;44.85;101818.56;4995890;28;20053;-61
2021/07/20 00:50:18;;;;;;;12.02;4.75;;;;;;;23.64;43.88;101819.16;4996666;28;20463;-62
2021/07/20 00:52:44;;;;;;;9.32;4.85;;;;;;;23.62;44.56;101814.88;4996750;28;20034;-61
2021/07/20 00:55:10;;;;;;;9.95;4.63;;;;;;;23.54;44.67;101807.63;4996721;28;20022;-62
2021/07/20 00:57:36;;;;;;;12.40;4.43;;;;;;;23.54;44.35;101818.56;4996543;28;20037;-62
2021/07/20 01:00:06;;;;;;;9.65;4.57;;;;;;;23.44;44.45;101796.13;4996861;28;20038;-61
2021/07/20 01:02:32;;;;;;;9.02;4.78;;;;;;;23.46;44.65;101798.66;4996833;28;20471;-62
2021/07/20 01:04:57;;;;;;;17.73;4.57;;;;;;;23.42;44.06;101809.13;4996777;28;20026;-62
2021/07/20 01:07:25;;;;;;;10.20;4.95;;;;;;;23.38;44.17;101807.81;4996221;28;20105;-61
2021/07/20 01:09:51;;;;;;;9.18;5.22;;;;;;;23.34;44.37;101814.66;4995710;28;20093;-61
2021/07/20 01:12:17;;;;;;;10.60;6.15;;;;;;;23.32;45.03;101813.16;4995084;28;20026;-61
2021/07/20 01:14:43;;;;;;;13.50;5.35;;;;;;;23.29;44.33;101808.91;4995196;28;20038;-62
2021/07/20 01:17:12;;;;;;;9.88;4.78;;;;;;;23.26;44.46;101803.81;4995377;28;20464;-61
2021/07/20 01:19:44;;;;;;;9.88;5.55;;;;;;;23.18;45.04;101798.44;4995169;28;20081;-61
2021/07/20 01:22:11;;;;;;;11.32;5.63;;;;;;;23.20;45.39;101810.88;4995262;28;20027;-63
2021/07/20 01:24:36;;;;;;;10.13;5.30;;;;;;;23.18;45.41;101809.38;4996347;28;20118;-63
2021/07/20 01:27:02;;;;;;;12.27;4.40;;;;;;;23.14;44.73;101808.06;4996339;28;20464;-61
2021/07/20 01:29:28;;;;;;;10.48;5.18;;;;;;;23.08;45.03;101792.41;4996237;28;20030;-63
2021/07/20 01:31:54;;;;;;;12.23;4.75;;;;;;;23.08;45.62;101811.56;4994893;28;20050;-63
2021/07/20 01:34:21;;;;;;;9.05;4.50;;;;;;;23.03;45.02;101808.53;4996205;28;20148;-62
2021/07/20 01:36:47;;;;;;;9.18;5.20;;;;;;;23.00;45.20;101808.91;4994991;28;20030;-61
2021/07/20 01:39:14;;;;;;;14.07;4.95;;;;;;;22.97;45.22;101809.28;4996339;28;20101;-61
2021/07/20 01:41:41;;;;;;;10.25;4.97;;;;;;;22.94;44.81;101809.66;4996163;28;20049;-61
2021/07/20 01:44:08;;;;;;;8.07;4.40;;;;;;;22.92;44.66;101814.47;4994970;28;20121;-61
2021/07/20 01:46:36;;;;;;;8.73;4.57;;;;;;;22.88;44.77;101808.50;4996058;28;20014;-61
2021/07/20 01:49:04;;;;;;;10.05;5.15;;;;;;;22.87;45.54;101814.13;4996037;28;20038;-62
2021/07/20 01:51:30;;;;;;;13.65;5.38;;;;;;;22.83;45.73;101818.28;4996195;28;20022;-62
2021/07/20 01:53:57;;;;;;;8.60;4.63;;;;;;;22.82;45.06;101814.69;4994754;28;20068;-62
2021/07/20 01:56:22;;;;;;;10.60;5.03;;;;;;;22.81;45.68;101823.09;4994488;28;20050;-61
2021/07/20 01:58:48;;;;;;;9.90;5.10;;;;;;;22.79;45.10;101819.69;4995780;28;20029;-62
2021/07/20 02:01:19;;;;;;;8.25;5.00;;;;;;;22.74;45.62;101822.13;4995715;28;20018;-61
2021/07/20 02:09:25;;;;;;;9.07;4.03;;;;;;;22.60;45.00;101813.69;4995369;28;20061;-62
2021/07/20 02:11:53;;;;;;;12.82;5.05;;;;;;;22.63;45.24;101831.56;4994824;28;20045;-62
2021/07/20 02:14:23;;;;;;;18.75;5.72;;;;;;;22.60;45.92;101823.75;4994330;28;20424;-61
2021/07/20 02:16:49;;;;;;;8.80;4.82;;;;;;;22.56;45.93;101823.25;4993990;28;20026;-61
2021/07/20 02:19:27;;;;;;;10.63;6.35;;;;;;;22.52;45.62;101824.66;4995162;28;20074;-61
2021/07/20 02:21:54;;;;;;;8.13;4.65;;;;;;;22.50;45.27;101823.97;4994897;28;20084;-62
2021/07/20 02:24:25;;;;;;;11.75;5.40;;;;;;;22.47;46.40;101821.59;4993739;28;20046;-61
2021/07/20 02:26:51;;;;;;;11.30;4.97;;;;;;;22.45;45.91;101818.22;4995239;28;20022;-61
2021/07/20 02:29:17;;;;;;;9.38;4.82;;;;;;;22.42;45.69;101810.38;4995254;28;20583;-62
2021/07/20 02:31:44;;;;;;;10.75;5.72;;;;;;;22.40;45.59;101819.81;4994111;28;20090;-62
2021/07/20 02:34:09;;;;;;;8.43;5.07;;;;;;;22.36;45.41;101813.84;4994139;28;20114;-62
2021/07/20 02:36:40;;;;;;;11.02;5.28;;;;;;;22.32;45.75;101809.81;4993763;28;20109;-61
2021/07/20 02:39:06;;;;;;;9.73;4.68;;;;;;;22.26;46.27;101810.50;4994045;28;20101;-61
2021/07/20 02:41:33;;;;;;;11.15;5.07;;;;;;;22.25;45.85;101808.81;4994984;28;20038;-61
2021/07/20 02:43:59;;;;;;;8.75;4.78;;;;;;;22.22;46.60;101809.16;4994099;28;20030;-61
2021/07/20 02:46:25;;;;;;;7.78;4.65;;;;;;;22.21;45.38;101815.69;4993552;28;20033;-62
2021/07/20 02:48:51;;;;;;;12.50;5.45;;;;;;;22.18;45.65;101810.56;4993726;28;20033;-61
2021/07/20 02:51:18;;;;;;;13.05;5.22;;;;;;;22.17;45.73;101810.75;4993538;28;20387;-61
2021/07/20 02:53:45;;;;;;;10.43;4.93;;;;;;;22.16;45.93;101809.06;4993548;28;20026;-61
2021/07/20 02:56:12;;;;;;;12.35;4.80;;;;;;;22.13;46.58;101804.81;4994388;28;20018;-61
2021/07/20 02:58:37;;;;;;;12.52;4.57;;;;;;;22.09;46.12;101808.91;4993703;28;20057;-61
2021/07/20 03:01:05;;;;;;;13.23;4.72;;;;;;;22.07;46.23;101810.13;4994873;28;20057;-62
2021/07/20 03:03:30;;;;;;;12.23;4.78;;;;;;;22.03;46.58;101812.38;4995043;28;20026;-61
2021/07/20 03:05:57;;;;;;;12.32;4.90;;;;;;;21.97;46.36;101803.03;4993299;28;20456;-61
2021/07/20 03:08:27;;;;;;;9.68;4.47;;;;;;;21.97;46.15;101810.38;4977025;28;20081;-61
2021/07/20 03:10:54;;;;;;;9.55;4.65;;;;;;;21.91;46.11;101801.03;4993408;28;20030;-61
2021/07/20 03:13:20;;;;;;;13.00;5.20;;;;;;;21.93;45.80;101809.03;4993480;28;20030;-61
2021/07/20 03:15:45;;;;;;;10.18;4.20;;;;;;;21.87;45.84;101801.56;4993407;28;20076;-61
2021/07/20 03:18:12;;;;;;;10.23;4.60;;;;;;;21.87;45.94;101801.56;4994890;28;20073;-61
2021/07/20 03:20:39;;;;;;;10.15;4.93;;;;;;;21.85;46.92;101806.31;4993262;28;20491;-61
2021/07/20 03:23:05;;;;;;;9.45;4.93;;;;;;;21.85;46.77;101811.78;4993490;28;20027;-61
2021/07/20 03:25:31;;;;;;;9.20;5.03;;;;;;;21.82;47.04;101803.94;4993404;28;20031;-61
2021/07/20 03:27:57;;;;;;;11.25;5.03;;;;;;;21.82;46.50;101806.66;4994026;28;20041;-61
2021/07/20 03:30:24;;;;;;;12.52;5.80;;;;;;;21.80;45.91;101804.09;4993401;28;20407;-61
2021/07/20 03:32:51;;;;;;;10.13;4.85;;;;;;;21.79;46.58;101809.75;4993584;28;20057;-61
2021/07/20 03:35:16;;;;;;;8.15;4.57;;;;;;;21.75;46.27;101800.22;4997032;28;20158;-61
2021/07/20 03:37:42;;;;;;;10.85;5.20;;;;;;;21.75;46.17;101805.66;4998487;28;20070;-61
2021/07/20 03:40:09;;;;;;;9.27;5.00;;;;;;;21.76;46.82;101804.66;4997237;28;20037;-61
2021/07/20 03:42:35;;;;;;;9.23;5.28;;;;;;;21.70;46.67;101808.09;4998768;28;20030;-61
2021/07/20 03:45:00;;;;;;;8.27;5.53;;;;;;;21.72;46.52;101808.78;4997634;28;20463;-61
2021/07/20 03:47:26;;;;;;;13.02;4.50;;;;;;;21.70;46.69;101808.09;4997716;28;20030;-61
2021/07/20 03:49:53;;;;;;;8.43;4.80;;;;;;;21.67;46.45;101805.69;4997601;28;20034;-61
2021/07/20 03:52:18;;;;;;;13.75;5.15;;;;;;;21.65;46.07;101805.91;4997623;28;20121;-61
2021/07/20 03:54:44;;;;;;;13.30;5.43;;;;;;;21.66;47.07;101809.47;4998229;28;20538;-61
2021/07/20 03:57:13;;;;;;;13.95;4.85;;;;;;;21.64;46.08;101804.19;4981228;28;20025;-61
2021/07/20 03:59:39;;;;;;;12.95;6.03;;;;;;;21.65;46.72;101810.50;4997608;28;20101;-61
2021/07/20 04:02:05;;;;;;;8.90;4.82;;;;;;;21.65;46.23;101807.75;4997936;28;20162;-61
2021/07/20 04:04:35;;;;;;;12.20;4.93;;;;;;;21.60;46.76;101802.00;4998608;28;20076;-61
2021/07/20 04:07:01;;;;;;;8.63;4.43;;;;;;;21.64;47.24;101814.25;4998687;28;20071;-61
2021/07/20 04:09:27;;;;;;;12.50;5.03;;;;;;;21.61;46.90;101810.00;4996923;28;20046;-61
2021/07/20 04:11:52;;;;;;;10.93;5.07;;;;;;;21.59;46.27;101811.19;4998991;28;20023;-61
2021/07/20 04:14:18;;;;;;;11.15;4.60;;;;;;;21.59;47.12;101812.06;4997521;28;20025;-61
2021/07/20 04:16:44;;;;;;;10.02;4.97;;;;;;;21.59;47.01;101813.94;4997621;28;20088;-61
2021/07/20 04:19:11;;;;;;;9.02;4.70;;;;;;;21.59;46.66;101816.66;4998319;28;20030;-61
2021/07/20 04:21:37;;;;;;;12.23;5.70;;;;;;;21.58;46.76;101810.34;4997195;28;20430;-61
2021/07/20 04:24:03;;;;;;;15.88;5.78;;;;;;;21.59;46.61;101816.66;4980983;28;20023;-61
2021/07/20 04:26:29;;;;;;;14.13;6.88;;;;;;;21.57;47.16;101807.81;4996868;28;20434;-62
2021/07/20 04:28:56;;;;;;;16.17;5.05;;;;;;;21.62;46.16;101816.31;4998230;28;20105;-61
2021/07/20 04:31:23;;;;;;;9.02;5.00;;;;;;;21.65;46.73;101811.34;4998048;28;20093;-61
2021/07/20 04:33:49;;;;;;;13.32;5.65;;;;;;;21.66;46.96;101801.28;4996991;28;20041;-61
2021/07/20 04:36:14;;;;;;;9.85;4.80;;;;;;;21.66;47.60;101801.28;4996798;28;20030;-61
2021/07/20 04:38:40;;;;;;;11.07;5.38;;;;;;;21.73;47.06;101803.13;4996880;28;20076;-61
2021/07/20 04:41:06;;;;;;;9.32;4.78;;;;;;;21.76;46.98;101797.31;4997890;28;20092;-61
2021/07/20 04:43:31;;;;;;;10.50;5.28;;;;;;;21.77;46.95;101793.56;4996779;28;20438;-61
2021/07/20 04:45:57;;;;;;;13.38;5.10;;;;;;;21.87;47.60;101805.13;4996081;28;20027;-61
2021/07/20 04:48:23;;;;;;;10.55;4.90;;;;;;;21.94;46.67;101808.84;4997933;28;20023;-61
2021/07/20 04:50:52;;;;;;;8.05;4.80;;;;;;;22.02;47.40;101810.69;4997555;28;20065;-61
2021/07/20 04:53:17;;;;;;;12.05;5.90;;;;;;;22.11;46.88;101811.50;4997346;28;20081;-61
2021/07/20 04:55:44;;;;;;;15.48;5.32;;;;;;;22.13;46.94;101804.81;4995633;28;20026;-61
2021/07/20 04:58:10;;;;;;;12.77;5.50;;;;;;;22.25;47.01;101808.81;4997061;28;20022;-61
2021/07/20 05:00:36;;;;;;;15.20;5.97;;;;;;;22.29;47.62;101799.25;4996638;28;20337;-61
2021/07/20 05:03:03;;;;;;;13.32;6.13;;;;;;;22.43;47.03;101812.09;4995363;28;20038;-61
2021/07/20 05:05:30;;;;;;;9.93;5.93;;;;;;;22.54;47.64;101813.53;4995565;28;20030;-61
2021/07/20 05:07:57;;;;;;;12.02;5.88;;;;;;;22.64;47.32;101807.88;4995077;28;20049;-62
2021/07/20 05:10:23;;;;;;;15.13;6.97;;;;;;;22.80;47.20;101818.66;4995247;28;20030;-62
2021/07/20 05:12:49;;;;;;;12.48;6.47;;;;;;;22.92;46.75;101812.53;4997071;28;20372;-62
2021/07/20 05:15:19;;;;;;;13.35;7.25;;;;;;;23.06;46.27;101819.09;4995397;28;20026;-62
2021/07/20 05:17:45;;;;;;;18.65;7.63;;;;;;;23.18;46.63;101820.31;4996537;28;20030;-61
2021/07/20 05:20:16;;;;;;;14.95;6.85;;;;;;;23.32;46.21;101827.69;4978951;28;20034;-61
2021/07/20 05:22:43;;;;;;;14.75;6.95;;;;;;;23.44;46.56;101823.47;4996446;28;20033;-61
2021/07/20 05:25:09;;;;;;;14.73;6.40;;;;;;;23.61;46.48;101830.47;4996386;28;20110;-61
2021/07/20 05:27:36;;;;;;;19.00;7.13;;;;;;;23.74;46.73;101836.09;4995955;28;20030;-61
2021/07/20 05:30:03;;;;;;;19.65;9.35;;;;;;;23.90;45.54;101839.69;4996332;28;20490;-62
2021/07/20 05:32:29;;;;;;;15.98;6.60;;;;;;;24.03;45.60;101829.72;4995835;28;20085;-62
2021/07/20 05:34:55;;;;;;;13.35;6.78;;;;;;;24.19;45.24;101839.63;4996067;28;20026;-61
2021/07/20 05:37:21;;;;;;;15.23;7.53;;;;;;;24.32;45.59;101845.25;4994964;28;20026;-62
2021/07/20 05:39:47;;;;;;;17.38;7.35;;;;;;;24.44;45.04;101838.22;4995241;28;20030;-62
2021/07/20 05:42:12;;;;;;;16.55;7.78;;;;;;;24.54;44.79;101844.19;4994721;28;20101;-62
2021/07/20 05:44:38;;;;;;;21.58;7.38;;;;;;;24.63;44.93;101832.06;4994472;28;20029;-62
2021/07/20 05:47:04;;;;;;;15.45;7.00;;;;;;;24.78;45.13;101843.81;4995658;28;20026;-62
2021/07/20 05:49:29;;;;;;;20.98;8.90;;;;;;;24.91;44.38;101845.84;4995630;28;20073;-62
2021/07/20 05:51:55;;;;;;;20.40;8.40;;;;;;;25.05;45.03;101846.81;4994858;28;20046;-61
2021/07/20 05:54:21;;;;;;;15.05;7.43;;;;;;;25.21;44.05;101852.00;4994478;28;20035;-62
2021/07/20 05:56:48;;;;;;;17.48;7.90;;;;;;;25.34;44.57;101844.72;4993852;28;20408;-62
2021/07/20 05:59:19;;;;;;;17.58;7.65;;;;;;;25.54;43.79;101844.88;4977609;28;20061;-62
2021/07/20 06:01:45;;;;;;;17.50;7.47;;;;;;;25.75;43.80;101850.25;4977877;28;20030;-62
2021/07/20 06:04:11;;;;;;;16.90;8.13;;;;;;;25.94;43.64;101849.50;4995816;28;20054;-62
2021/07/20 06:06:36;;;;;;;17.73;8.13;;;;;;;26.10;43.12;101856.53;4995479;28;20066;-62
2021/07/20 06:09:02;;;;;;;17.55;8.30;;;;;;;26.24;43.14;101860.22;4994985;28;20499;-62
2021/07/20 06:11:28;;;;;;;17.70;7.97;;;;;;;26.38;42.74;101862.75;4994240;28;20026;-62
2021/07/20 06:13:54;;;;;;;16.85;8.30;;;;;;;26.52;43.02;101864.50;4995060;28;20110;-62
2021/07/20 06:16:24;;;;;;;16.83;7.90;;;;;;;26.61;42.87;101856.91;4994054;28;20026;-62
2021/07/20 06:18:50;;;;;;;17.58;8.07;;;;;;;26.72;42.56;101863.69;4995324;28;20026;-62
2021/07/20 06:21:18;;;;;;;22.98;7.53;;;;;;;26.85;41.93;101870.09;4995290;28;20037;-62
2021/07/20 06:23:46;;;;;;;18.23;7.65;;;;;;;27.00;42.18;101864.34;4994048;28;20040;-62
2021/07/20 06:26:16;;;;;;;18.58;6.80;;;;;;;27.17;42.19;101862.88;4993982;28;20069;-62
2021/07/20 06:28:42;;;;;;;13.95;7.00;;;;;;;27.31;42.04;101855.44;4995686;28;20034;-60
2021/07/20 06:31:07;;;;;;;15.63;7.80;;;;;;;27.44;41.43;101858.22;4993665;28;20026;-59
2021/07/20 06:33:33;;;;;;;18.95;7.22;;;;;;;27.58;41.03;101866.22;4994932;28;20026;-59
2021/07/20 06:35:59;;;;;;;15.70;8.13;;;;;;;27.68;41.76;101860.28;4994895;28;20410;-60
2021/07/20 06:38:25;;;;;;;18.48;8.43;;;;;;;27.80;40.99;101852.19;4994107;28;20467;-59
2021/07/20 06:40:54;;;;;;;15.20;7.75;;;;;;;27.97;40.24;101859.75;4994718;28;20109;-60
2021/07/20 06:43:21;;;;;;;15.07;7.88;;;;;;;28.05;40.43;101867.81;4994905;28;20034;-62
2021/07/20 06:45:48;;;;;;;15.20;7.38;;;;;;;28.22;40.15;101871.75;4994855;28;20027;-62
2021/07/20 06:48:16;;;;;;;14.05;7.53;;;;;;;28.37;40.20;101870.59;4994750;28;20037;-63
2021/07/20 06:50:43;;;;;;;15.18;7.82;;;;;;;28.49;40.38;101863.31;4993592;28;20034;-60
2021/07/20 06:53:11;;;;;;;15.68;7.82;;;;;;;28.67;39.45;101869.78;4994357;28;20472;-59
2021/07/20 06:55:38;;;;;;;14.52;7.50;;;;;;;28.86;39.35;101870.72;4993709;28;20030;-59
2021/07/20 06:58:06;;;;;;;18.33;7.57;;;;;;;29.02;38.89;101869.31;4993471;28;20030;-59
2021/07/20 07:00:31;;;;;;;15.82;7.75;;;;;;;29.13;39.23;101863.91;4993475;28;20494;-59
2021/07/20 07:02:59;;;;;;;11.13;6.93;;;;;;;29.31;38.69;101863.97;4993167;28;20034;-59
2021/07/20 07:05:28;;;;;;;14.63;6.93;;;;;;;29.46;38.90;101877.44;4993346;28;20022;-59
2021/07/20 07:07:55;;;;;;;14.80;7.13;;;;;;;29.56;38.06;101868.63;4976851;28;20055;-59
2021/07/20 07:10:21;;;;;;;16.65;7.22;;;;;;;29.69;38.88;101874.00;4993106;28;20033;-59
2021/07/20 07:12:47;;;;;;;14.10;6.68;;;;;;;29.80;38.82;101876.03;4993512;28;20031;-59
2021/07/20 07:15:14;;;;;;;16.25;8.02;;;;;;;29.98;37.96;101876.03;4994382;28;20026;-60
2021/07/20 07:17:39;;;;;;;13.75;6.35;;;;;;;30.17;37.43;101883.22;4993561;28;20037;-60
2021/07/20 07:20:05;;;;;;;12.05;6.30;;;;;;;30.35;37.78;101882.31;4993246;28;20023;-59
2021/07/20 07:22:33;;;;;;;13.00;7.00;;;;;;;30.50;37.25;101886.41;4994287;28;20535;-60
2021/07/20 07:24:58;;;;;;;14.15;6.78;;;;;;;30.64;37.07;101883.44;4992920;28;20018;-60
2021/07/20 07:27:25;;;;;;;16.35;6.95;;;;;;;30.77;36.53;101880.47;4993462;28;20022;-60
2021/07/20 07:29:52;;;;;;;107.40;55.00;;;;;;;30.91;36.66;101882.78;4994337;28;20056;-59
2021/07/20 07:32:17;;;;;;;16.10;8.10;;;;;;;31.03;36.16;101875.38;4993130;28;20035;-60
2021/07/20 07:34:43;;;;;;;13.23;6.82;;;;;;;31.18;35.83;101883.22;4994307;28;20045;-60
2021/07/20 07:37:08;;;;;;;21.63;10.48;;;;;;;31.31;35.27;101883.00;4994226;28;20386;-59
2021/07/20 07:39:35;;;;;;;15.32;6.85;;;;;;;31.36;35.72;101885.03;4994419;28;20380;-55
2021/07/20 07:42:00;;;;;;;68.07;51.13;;;;;;;31.47;35.69;101882.28;4992920;28;20039;-59
2021/07/20 07:44:26;;;;;;;40.55;27.45;;;;;;;31.58;35.50;101881.44;4992966;28;20033;-54
2021/07/20 07:46:54;;;;;;;27.70;15.27;;;;;;;31.76;35.01;101880.47;4993294;28;20387;-54
2021/07/20 07:49:20;;;;;;;16.63;6.88;;;;;;;31.93;34.83;101880.53;4994127;28;20030;-56
2021/07/20 07:51:48;;;;;;;14.77;6.60;;;;;;;32.09;34.64;101877.88;4993810;28;20022;-60
2021/07/20 07:54:13;;;;;;;13.93;6.53;;;;;;;32.27;34.32;101882.41;4992829;28;20659;-60
2021/07/20 07:56:39;;;;;;;10.80;5.70;;;;;;;32.39;34.09;101880.41;4992433;28;20030;-60
2021/07/20 07:59:06;;;;;;;12.73;6.43;;;;;;;32.53;34.07;101880.94;4992516;28;20026;-60
2021/07/20 08:01:32;;;;;;;17.73;6.75;;;;;;;32.68;34.36;101884.03;4992796;28;20102;-60
2021/07/20 08:03:58;;;;;;;14.10;7.28;;;;;;;32.79;33.58;101889.53;4992545;28;20030;-60
2021/07/20 08:06:25;;;;;;;12.07;5.82;;;;;;;32.89;33.61;101885.25;4992838;28;20540;-60
2021/07/20 08:09:11;;;;;;;11.23;6.82;;;;;;;33.11;32.96;101894.56;4975916;28;20569;-60
2021/07/20 08:11:37;;;;;;;10.98;6.13;;;;;;;33.22;32.93;101890.84;4992518;28;20030;-60
2021/07/20 08:14:04;;;;;;;13.27;6.35;;;;;;;33.36;32.65;101890.22;4977205;28;20030;-60
2021/07/20 08:16:31;;;;;;;11.45;5.93;;;;;;;33.51;32.43;101881.28;4993830;28;20080;-60
2021/07/20 08:18:59;;;;;;;12.38;6.43;;;;;;;33.63;32.22;101873.72;4992480;28;20019;-59
2021/07/20 08:21:27;;;;;;;13.60;6.18;;;;;;;33.81;31.69;101884.53;4995898;28;20034;-60
2021/07/20 08:23:55;;;;;;;12.52;6.35;;;;;;;33.94;31.88;101892.50;4996289;28;20092;-60
2021/07/20 08:26:24;;;;;;;11.50;6.03;;;;;;;34.04;31.65;101882.59;4997120;28;20057;-60
2021/07/20 08:28:59;;;;;;;14.43;7.10;;;;;;;34.14;31.79;101886.38;4997381;28;20030;-60
2021/07/20 08:31:27;;;;;;;14.00;7.05;;;;;;;34.20;31.94;101881.72;4996173;28;20026;-61
2021/07/20 08:33:56;;;;;;;12.48;6.50;;;;;;;34.27;31.49;101883.19;4996165;28;20402;-60
2021/07/20 08:36:22;;;;;;;13.32;7.28;;;;;;;34.38;31.74;101881.38;4995944;28;20136;-60
2021/07/20 08:38:49;;;;;;;13.35;6.28;;;;;;;34.49;31.77;101880.38;4996006;28;20022;-59
2021/07/20 08:41:29;;;;;;;12.13;7.03;;;;;;;34.58;30.70;101878.84;4995765;28;20088;-60
2021/07/20 08:44:16;;;;;;;12.80;6.63;;;;;;;34.65;30.77;101876.66;4997187;28;20038;-60
2021/07/20 08:47:05;;;;;;;10.50;5.60;;;;;;;34.78;31.57;101873.47;4995853;28;20173;-60
2021/07/20 08:49:58;;;;;;;11.45;5.95;;;;;;;34.83;30.23;101865.16;4995483;28;20026;-60
2021/07/20 08:52:29;;;;;;;12.27;6.20;;;;;;;34.96;31.07;101869.41;4995767;28;20053;-60
2021/07/20 08:54:56;;;;;;;12.35;5.80;;;;;;;35.14;30.79;101873.78;4996642;28;20033;-60
2021/07/20 08:57:48;;;;;;;8.85;5.15;;;;;;;35.27;30.27;101874.16;4995647;28;20364;-60
2021/07/20 09:00:19;;;;;;;9.65;5.72;;;;;;;35.36;30.04;101863.34;4996795;28;20096;-59
2021/07/20 09:03:13;;;;;;;9.30;4.93;;;;;;;35.54;29.25;101876.88;4995261;28;20481;-61
2021/07/20 09:05:48;;;;;;;8.90;5.03;;;;;;;35.64;29.33;101874.16;4996333;28;20045;-60
2021/07/20 09:08:18;;;;;;;8.95;5.47;;;;;;;35.73;29.31;101878.13;4996328;28;20499;-61
2021/07/20 09:11:00;;;;;;;8.38;4.78;;;;;;;35.84;29.18;101874.25;4995381;28;20022;-60
2021/07/20 09:13:33;;;;;;;8.85;5.45;;;;;;;35.98;29.16;101874.59;4995354;28;20038;-61
2021/07/20 09:16:31;;;;;;;9.82;5.25;;;;;;;36.14;28.71;101874.41;4995943;28;20033;-60
2021/07/20 09:19:24;;;;;;;9.32;5.68;;;;;;;36.21;28.49;101871.38;4975725;28;20042;-60
2021/07/20 09:21:50;;;;;;;12.55;5.85;;;;;;;36.23;28.56;101874.72;4996423;28;20026;-60
2021/07/20 09:24:19;;;;;;;8.30;5.65;;;;;;;36.30;28.30;101874.44;4996527;28;20077;-61
2021/07/20 09:26:51;;;;;;;9.05;5.90;;;;;;;36.31;28.13;101873.34;4996240;28;20331;-61
2021/07/20 09:29:22;;;;;;;;;;;;;;;36.44;28.53;101875.59;4995553;28;20530;-60
2021/07/20 09:31:47;;;;;;;8.45;5.03;;;;;;;36.53;28.33;101882.34;4994673;28;19909;-60
2021/07/20 09:34:38;;;;;;;13.13;6.15;;;;;;;36.65;28.18;101881.00;4996147;28;20106;-61
2021/07/20 09:37:12;;;;;;;12.10;6.18;;;;;;;36.74;27.79;101876.50;4994913;28;20061;-57
2021/07/20 09:39:45;;;;;;;10.65;6.60;;;;;;;36.80;28.04;101884.94;4994700;28;20368;-60
2021/07/20 09:42:20;;;;;;;14.68;6.00;;;;;;;36.80;27.10;101874.56;4995175;28;20030;-60
2021/07/20 09:45:13;;;;;;;11.18;5.78;;;;;;;36.94;27.67;101877.63;4994509;28;20135;-60
2021/07/20 09:48:00;;;;;;;9.82;5.47;;;;;;;37.02;27.64;101872.34;4995938;28;20530;-60
2021/07/20 09:50:28;;;;;;;12.55;6.07;;;;;;;37.08;27.68;101882.44;4995839;28;20030;-60
2021/07/20 09:53:12;;;;;;;11.32;5.93;;;;;;;37.16;27.32;101881.03;4995826;28;20026;-60
2021/07/20 09:56:16;;;;;;;13.52;6.78;;;;;;;37.24;27.21;101889.69;4995485;28;20112;-60
2021/07/20 09:58:47;;;;;;;9.80;5.70;;;;;;;37.31;27.61;101876.25;4996180;28;20367;-60
2021/07/20 10:01:31;;;;;;;13.90;7.40;;;;;;;37.45;27.34;101881.28;4995374;28;20022;-61
2021/07/20 10:04:08;;;;;;;17.73;7.10;;;;;;;37.67;27.55;101879.00;4995587;28;20081;-61
2021/07/20 10:06:36;;;;;;;11.50;7.18;;;;;;;37.91;27.17;101863.28;4995532;28;20050;-60
2021/07/20 10:09:09;;;;;;;13.10;11.77;;;;;;;38.34;27.37;101865.31;4995231;28;20062;-60
2021/07/20 10:11:53;;;;;;;23.40;21.15;;;;;;;38.98;26.48;101864.31;4994223;28;20025;-61
2021/07/20 10:14:36;;;;;;;11.32;9.35;;;;;;;39.76;25.81;101869.75;4995390;28;20030;-61
2021/07/20 10:17:35;;;;;;;9.82;6.70;;;;;;;40.76;24.16;101861.03;4995335;28;20034;-60
2021/07/20 10:20:12;;;;;;;10.07;6.35;;;;;;;41.54;23.92;101861.91;4995280;28;20023;-60
2021/07/20 10:22:46;;;;;;;11.55;7.20;;;;;;;41.22;23.89;101845.88;4995497;28;20455;-61
2021/07/20 10:25:21;;;;;;;12.77;6.75;;;;;;;40.53;23.90;101858.03;4993767;28;20018;-60
2021/07/20 10:28:28;;;;;;;10.73;6.97;;;;;;;40.04;24.25;101857.56;4994147;28;20398;-60
2021/07/20 10:31:02;;;;;;;11.73;6.40;;;;;;;39.78;24.40;101853.44;4935347;29;20102;-60
2021/07/20 10:33:32;;;;;;;10.32;6.65;;;;;;;39.51;25.53;101854.81;4985435;28;20066;-60
2021/07/20 10:36:07;;;;;;;11.63;7.15;;;;;;;39.37;24.68;101853.00;4993700;28;20034;-60
2021/07/20 10:39:08;;;;;;;10.93;7.43;;;;;;;39.27;25.78;101853.97;4993484;28;20026;-60
2021/07/20 10:41:55;;;;;;;13.32;7.05;;;;;;;39.35;24.55;101849.69;4975355;28;20060;-61
2021/07/20 10:44:58;;;;;;;11.48;6.93;;;;;;;39.49;25.22;101862.69;4994652;28;20037;-60
2021/07/20 10:47:29;;;;;;;11.60;7.65;;;;;;;39.61;24.64;101853.03;4965415;28;20046;-61
2021/07/20 10:50:00;;;;;;;11.25;8.02;;;;;;;39.72;24.82;101849.84;4993885;28;20029;-60
2021/07/20 10:52:34;;;;;;;12.13;7.30;;;;;;;39.92;24.16;101854.38;4994773;28;20022;-60
2021/07/20 10:55:29;;;;;;;11.60;7.55;;;;;;;40.18;24.50;101852.91;4993013;28;20121;-60
2021/07/20 10:58:12;;;;;;;12.23;7.28;;;;;;;40.40;23.89;101855.94;4969855;28;20148;-61
2021/07/20 11:00:50;;;;;;;13.85;8.32;;;;;;;40.51;24.54;101846.25;4993712;28;20030;-60
2021/07/20 11:03:28;;;;;;;12.90;6.97;;;;;;;40.73;23.83;101847.59;4994244;28;20026;-60
2021/07/20 11:05:55;;;;;;;12.30;8.07;;;;;;;40.93;24.07;101852.91;4994820;28;20080;-60
2021/07/20 11:08:21;;;;;;;12.18;7.20;;;;;;;41.04;23.91;101843.16;4994157;28;20432;-60
2021/07/20 11:10:52;;;;;;;11.63;7.20;;;;;;;41.14;23.75;101837.34;4993590;28;20089;-61
2021/07/20 11:13:22;;;;;;;10.90;7.50;;;;;;;41.09;23.60;101834.63;4977671;28;20026;-60
2021/07/20 11:15:53;;;;;;;11.75;7.40;;;;;;;41.17;23.80;101836.72;4994545;28;20383;-60
2021/07/20 11:18:23;;;;;;;12.00;6.78;;;;;;;41.30;23.57;101841.50;4993283;28;20053;-61
2021/07/20 11:20:49;;;;;;;13.65;7.63;;;;;;;41.41;23.74;101840.19;4993253;28;20030;-61
2021/07/20 11:23:18;;;;;;;10.38;6.80;;;;;;;41.57;23.72;101841.56;4994064;28;20030;-60
2021/07/20 11:25:45;;;;;;;14.07;7.78;;;;;;;41.65;23.14;101832.41;4994038;28;20348;-61
2021/07/20 11:28:11;;;;;;;12.07;7.10;;;;;;;41.69;23.00;101827.81;4993436;28;20030;-60
2021/07/20 11:30:39;;;;;;;14.85;6.70;;;;;;;41.76;23.35;101827.44;4976596;28;20026;-60
2021/07/20 11:33:08;;;;;;;16.65;6.25;;;;;;;41.83;23.09;101827.81;4994209;28;20421;-60
2021/07/20 11:35:37;;;;;;;13.30;7.25;;;;;;;41.87;22.85;101834.50;4994389;28;20072;-60